sensor_id;sensor_type;location;lat;lon;timestamp;P1;durP1;ratioP1;P2;durP2;ratioP2
79697;SDS011;69168;42.708;23.286;2023-09-12T00:00:41;6.57;;;3.78;;
79697;SDS011;69168;42.708;23.286;2023-09-12T00:03:06;7.07;;;4.07;;
79697;SDS011;69168;42.708;23.286;2023-09-12T00:05:32;10.57;;;4.30;;
79697;SDS011;69168;42.708;23.286;2023-09-12T00:07:57;7.80;;;3.90;;
79697;SDS011;69168;42.708;23.286;2023-09-12T00:10:23;6.18;;;3.20;;
79697;SDS011;69168;42.708;23.286;2023-09-12T00:12:48;6.38;;;3.70;;
79697;SDS011;69168;42.708;23.286;2023-09-12T00:15:14;7.05;;;3.47;;
79697;SDS011;69168;42.708;23.286;2023-09-12T00:17:39;5.22;;;3.03;;
79697;SDS011;69168;42.708;23.286;2023-09-12T00:20:05;5.70;;;2.72;;
79697;SDS011;69168;42.708;23.286;2023-09-12T00:22:32;5.47;;;3.20;;
79697;SDS011;69168;42.708;23.286;2023-09-12T00:24:58;3.88;;;2.75;;
79697;SDS011;69168;42.708;23.286;2023-09-12T00:27:23;6.03;;;2.92;;
79697;SDS011;69168;42.708;23.286;2023-09-12T00:29:49;7.70;;;2.90;;
79697;SDS011;69168;42.708;23.286;2023-09-12T00:32:14;6.15;;;2.80;;
79697;SDS011;69168;42.708;23.286;2023-09-12T00:34:40;6.25;;;2.50;;
79697;SDS011;69168;42.708;23.286;2023-09-12T00:37:05;4.85;;;2.53;;
79697;SDS011;69168;42.708;23.286;2023-09-12T00:39:30;6.60;;;4.50;;
79697;SDS011;69168;42.708;23.286;2023-09-12T00:41:56;7.30;;;4.35;;
79697;SDS011;69168;42.708;23.286;2023-09-12T00:44:21;7.83;;;4.17;;
79697;SDS011;69168;42.708;23.286;2023-09-12T00:46:47;7.93;;;4.45;;
79697;SDS011;69168;42.708;23.286;2023-09-12T00:49:14;10.48;;;4.32;;
79697;SDS011;69168;42.708;23.286;2023-09-12T00:51:42;6.97;;;4.13;;
79697;SDS011;69168;42.708;23.286;2023-09-12T00:54:09;7.95;;;4.20;;
79697;SDS011;69168;42.708;23.286;2023-09-12T00:56:35;6.13;;;4.72;;
79697;SDS011;69168;42.708;23.286;2023-09-12T00:59:01;6.07;;;3.83;;
79697;SDS011;69168;42.708;23.286;2023-09-12T01:03:53;9.20;;;3.90;;
79697;SDS011;69168;42.708;23.286;2023-09-12T01:06:21;6.93;;;4.32;;
79697;SDS011;69168;42.708;23.286;2023-09-12T01:08:50;6.68;;;4.40;;
79697;SDS011;69168;42.708;23.286;2023-09-12T01:11:16;8.20;;;4.07;;
79697;SDS011;69168;42.708;23.286;2023-09-12T01:13:42;5.18;;;3.88;;
79697;SDS011;69168;42.708;23.286;2023-09-12T01:16:08;7.65;;;4.13;;
79697;SDS011;69168;42.708;23.286;2023-09-12T01:18:33;4.93;;;3.03;;
79697;SDS011;69168;42.708;23.286;2023-09-12T01:29:28;5.88;;;2.97;;
79697;SDS011;69168;42.708;23.286;2023-09-12T01:31:56;8.35;;;3.20;;
79697;SDS011;69168;42.708;23.286;2023-09-12T01:34:22;3.88;;;2.70;;
79697;SDS011;69168;42.708;23.286;2023-09-12T01:36:48;6.85;;;3.10;;
79697;SDS011;69168;42.708;23.286;2023-09-12T01:39:13;4.75;;;2.55;;
79697;SDS011;69168;42.708;23.286;2023-09-12T01:41:39;6.55;;;3.83;;
79697;SDS011;69168;42.708;23.286;2023-09-12T01:44:08;10.25;;;6.13;;
79697;SDS011;69168;42.708;23.286;2023-09-12T01:46:35;13.13;;;7.78;;
79697;SDS011;69168;42.708;23.286;2023-09-12T01:49:02;8.75;;;4.57;;
79697;SDS011;69168;42.708;23.286;2023-09-12T01:51:30;11.07;;;6.18;;
79697;SDS011;69168;42.708;23.286;2023-09-12T01:53:56;8.75;;;5.13;;
79697;SDS011;69168;42.708;23.286;2023-09-12T01:56:23;5.57;;;3.22;;
79697;SDS011;69168;42.708;23.286;2023-09-12T01:58:50;5.35;;;3.83;;
79697;SDS011;69168;42.708;23.286;2023-09-12T02:01:15;7.10;;;3.42;;
79697;SDS011;69168;42.708;23.286;2023-09-12T02:03:41;8.60;;;3.35;;
79697;SDS011;69168;42.708;23.286;2023-09-12T02:06:06;4.65;;;3.17;;
79697;SDS011;69168;42.708;23.286;2023-09-12T02:08:32;6.88;;;2.80;;
79697;SDS011;69168;42.708;23.286;2023-09-12T02:10:57;7.00;;;2.90;;
79697;SDS011;69168;42.708;23.286;2023-09-12T02:13:22;5.18;;;2.70;;
79697;SDS011;69168;42.708;23.286;2023-09-12T02:15:48;4.63;;;2.88;;
79697;SDS011;69168;42.708;23.286;2023-09-12T02:18:13;4.33;;;2.90;;
79697;SDS011;69168;42.708;23.286;2023-09-12T02:20:40;5.53;;;3.22;;
79697;SDS011;69168;42.708;23.286;2023-09-12T02:23:06;6.30;;;2.97;;
79697;SDS011;69168;42.708;23.286;2023-09-12T02:25:31;8.30;;;3.03;;
79697;SDS011;69168;42.708;23.286;2023-09-12T02:27:56;5.20;;;2.83;;
79697;SDS011;69168;42.708;23.286;2023-09-12T02:30:22;6.85;;;3.20;;
79697;SDS011;69168;42.708;23.286;2023-09-12T02:32:47;5.20;;;2.80;;
79697;SDS011;69168;42.708;23.286;2023-09-12T02:35:13;9.38;;;3.05;;
79697;SDS011;69168;42.708;23.286;2023-09-12T02:37:38;6.13;;;2.88;;
79697;SDS011;69168;42.708;23.286;2023-09-12T02:40:04;9.70;;;3.60;;
79697;SDS011;69168;42.708;23.286;2023-09-12T02:42:35;9.40;;;3.10;;
79697;SDS011;69168;42.708;23.286;2023-09-12T02:45:01;4.90;;;2.65;;
79697;SDS011;69168;42.708;23.286;2023-09-12T02:47:26;7.75;;;3.42;;
79697;SDS011;69168;42.708;23.286;2023-09-12T02:49:52;6.32;;;3.08;;
79697;SDS011;69168;42.708;23.286;2023-09-12T02:52:17;8.60;;;3.45;;
79697;SDS011;69168;42.708;23.286;2023-09-12T02:54:42;9.90;;;3.80;;
79697;SDS011;69168;42.708;23.286;2023-09-12T02:57:08;9.38;;;3.38;;
79697;SDS011;69168;42.708;23.286;2023-09-12T02:59:34;8.32;;;3.28;;
79697;SDS011;69168;42.708;23.286;2023-09-12T03:01:59;5.80;;;3.20;;
79697;SDS011;69168;42.708;23.286;2023-09-12T03:04:25;11.32;;;4.45;;
79697;SDS011;69168;42.708;23.286;2023-09-12T03:06:53;10.27;;;4.03;;
79697;SDS011;69168;42.708;23.286;2023-09-12T03:09:18;8.82;;;5.15;;
79697;SDS011;69168;42.708;23.286;2023-09-12T03:11:44;11.85;;;5.63;;
79697;SDS011;69168;42.708;23.286;2023-09-12T03:14:10;13.13;;;5.45;;
79697;SDS011;69168;42.708;23.286;2023-09-12T03:16:35;9.93;;;5.22;;
79697;SDS011;69168;42.708;23.286;2023-09-12T03:19:02;18.13;;;7.03;;
79697;SDS011;69168;42.708;23.286;2023-09-12T03:21:28;13.18;;;5.47;;
79697;SDS011;69168;42.708;23.286;2023-09-12T03:23:54;6.03;;;4.25;;
79697;SDS011;69168;42.708;23.286;2023-09-12T03:26:19;7.90;;;5.75;;
79697;SDS011;69168;42.708;23.286;2023-09-12T03:28:45;10.77;;;4.80;;
79697;SDS011;69168;42.708;23.286;2023-09-12T03:31:11;11.95;;;5.40;;
79697;SDS011;69168;42.708;23.286;2023-09-12T03:33:38;10.82;;;6.35;;
79697;SDS011;69168;42.708;23.286;2023-09-12T03:36:04;22.67;;;11.18;;
79697;SDS011;69168;42.708;23.286;2023-09-12T03:38:31;13.65;;;6.28;;
79697;SDS011;69168;42.708;23.286;2023-09-12T03:40:56;13.40;;;6.75;;
79697;SDS011;69168;42.708;23.286;2023-09-12T03:43:22;11.02;;;6.22;;
79697;SDS011;69168;42.708;23.286;2023-09-12T03:45:47;6.13;;;4.30;;
79697;SDS011;69168;42.708;23.286;2023-09-12T03:48:13;10.18;;;4.25;;
79697;SDS011;69168;42.708;23.286;2023-09-12T03:50:39;8.45;;;3.83;;
79697;SDS011;69168;42.708;23.286;2023-09-12T03:53:05;4.97;;;3.60;;
79697;SDS011;69168;42.708;23.286;2023-09-12T03:55:30;7.63;;;4.65;;
79697;SDS011;69168;42.708;23.286;2023-09-12T03:57:56;8.85;;;5.82;;
79697;SDS011;69168;42.708;23.286;2023-09-12T04:00:21;9.50;;;5.40;;
79697;SDS011;69168;42.708;23.286;2023-09-12T04:02:46;7.33;;;3.70;;
79697;SDS011;69168;42.708;23.286;2023-09-12T04:05:12;10.70;;;6.50;;
79697;SDS011;69168;42.708;23.286;2023-09-12T04:07:38;18.10;;;5.97;;
79697;SDS011;69168;42.708;23.286;2023-09-12T04:10:04;11.83;;;5.83;;
79697;SDS011;69168;42.708;23.286;2023-09-12T04:12:29;11.23;;;5.65;;
79697;SDS011;69168;42.708;23.286;2023-09-12T04:14:55;10.67;;;5.13;;
79697;SDS011;69168;42.708;23.286;2023-09-12T04:17:21;9.90;;;5.13;;
79697;SDS011;69168;42.708;23.286;2023-09-12T04:19:46;11.43;;;5.45;;
79697;SDS011;69168;42.708;23.286;2023-09-12T04:22:12;11.50;;;6.00;;
79697;SDS011;69168;42.708;23.286;2023-09-12T04:24:37;13.32;;;6.63;;
79697;SDS011;69168;42.708;23.286;2023-09-12T04:27:03;7.65;;;4.32;;
79697;SDS011;69168;42.708;23.286;2023-09-12T04:29:28;11.23;;;5.38;;
79697;SDS011;69168;42.708;23.286;2023-09-12T04:31:54;12.38;;;6.03;;
79697;SDS011;69168;42.708;23.286;2023-09-12T04:34:24;8.02;;;4.20;;
79697;SDS011;69168;42.708;23.286;2023-09-12T04:36:50;6.40;;;3.53;;
79697;SDS011;69168;42.708;23.286;2023-09-12T04:39:16;7.13;;;3.80;;
79697;SDS011;69168;42.708;23.286;2023-09-12T04:41:42;8.50;;;4.72;;
79697;SDS011;69168;42.708;23.286;2023-09-12T04:44:07;10.57;;;5.40;;
79697;SDS011;69168;42.708;23.286;2023-09-12T04:46:33;8.88;;;4.15;;
79697;SDS011;69168;42.708;23.286;2023-09-12T04:48:59;10.27;;;5.40;;
79697;SDS011;69168;42.708;23.286;2023-09-12T04:51:24;9.32;;;4.97;;
79697;SDS011;69168;42.708;23.286;2023-09-12T04:53:52;10.00;;;4.80;;
79697;SDS011;69168;42.708;23.286;2023-09-12T04:56:17;11.55;;;5.70;;
79697;SDS011;69168;42.708;23.286;2023-09-12T04:58:42;12.98;;;5.93;;
79697;SDS011;69168;42.708;23.286;2023-09-12T05:01:08;12.57;;;5.40;;
79697;SDS011;69168;42.708;23.286;2023-09-12T05:03:34;13.75;;;5.53;;
79697;SDS011;69168;42.708;23.286;2023-09-12T05:06:00;11.55;;;4.80;;
79697;SDS011;69168;42.708;23.286;2023-09-12T05:08:25;16.77;;;5.53;;
79697;SDS011;69168;42.708;23.286;2023-09-12T05:10:50;11.50;;;5.57;;
79697;SDS011;69168;42.708;23.286;2023-09-12T05:13:16;12.85;;;5.10;;
79697;SDS011;69168;42.708;23.286;2023-09-12T05:15:42;8.30;;;5.05;;
79697;SDS011;69168;42.708;23.286;2023-09-12T05:18:07;15.00;;;4.95;;
79697;SDS011;69168;42.708;23.286;2023-09-12T05:20:33;10.88;;;5.30;;
79697;SDS011;69168;42.708;23.286;2023-09-12T05:22:59;10.13;;;5.40;;
79697;SDS011;69168;42.708;23.286;2023-09-12T05:25:25;9.55;;;4.63;;
79697;SDS011;69168;42.708;23.286;2023-09-12T05:30:17;13.32;;;5.75;;
79697;SDS011;69168;42.708;23.286;2023-09-12T05:32:42;10.65;;;6.57;;
79697;SDS011;69168;42.708;23.286;2023-09-12T05:35:08;16.23;;;7.70;;
79697;SDS011;69168;42.708;23.286;2023-09-12T05:37:33;10.90;;;8.20;;
79697;SDS011;69168;42.708;23.286;2023-09-12T05:39:59;12.95;;;6.82;;
79697;SDS011;69168;42.708;23.286;2023-09-12T05:42:24;20.85;;;10.85;;
79697;SDS011;69168;42.708;23.286;2023-09-12T05:44:50;10.80;;;5.72;;
79697;SDS011;69168;42.708;23.286;2023-09-12T05:47:18;11.57;;;6.80;;
79697;SDS011;69168;42.708;23.286;2023-09-12T05:49:44;11.70;;;7.50;;
79697;SDS011;69168;42.708;23.286;2023-09-12T05:52:10;14.65;;;5.85;;
79697;SDS011;69168;42.708;23.286;2023-09-12T05:54:36;10.70;;;5.43;;
79697;SDS011;69168;42.708;23.286;2023-09-12T05:57:01;13.27;;;6.03;;
79697;SDS011;69168;42.708;23.286;2023-09-12T05:59:27;13.75;;;6.00;;
79697;SDS011;69168;42.708;23.286;2023-09-12T06:01:53;19.85;;;11.50;;
79697;SDS011;69168;42.708;23.286;2023-09-12T06:04:18;13.60;;;8.10;;
79697;SDS011;69168;42.708;23.286;2023-09-12T06:06:44;14.30;;;8.88;;
79697;SDS011;69168;42.708;23.286;2023-09-12T06:09:10;20.65;;;11.05;;
79697;SDS011;69168;42.708;23.286;2023-09-12T06:11:35;13.45;;;7.25;;
79697;SDS011;69168;42.708;23.286;2023-09-12T06:14:01;13.43;;;8.13;;
79697;SDS011;69168;42.708;23.286;2023-09-12T06:16:26;14.63;;;7.05;;
79697;SDS011;69168;42.708;23.286;2023-09-12T06:18:52;11.32;;;6.60;;
79697;SDS011;69168;42.708;23.286;2023-09-12T06:21:18;19.05;;;8.15;;
79697;SDS011;69168;42.708;23.286;2023-09-12T06:23:46;13.38;;;6.35;;
79697;SDS011;69168;42.708;23.286;2023-09-12T06:26:32;13.43;;;8.25;;
79697;SDS011;69168;42.708;23.286;2023-09-12T06:28:58;8.55;;;4.70;;
79697;SDS011;69168;42.708;23.286;2023-09-12T06:31:24;12.90;;;5.93;;
79697;SDS011;69168;42.708;23.286;2023-09-12T06:33:49;10.80;;;4.53;;
79697;SDS011;69168;42.708;23.286;2023-09-12T06:36:15;12.75;;;5.65;;
79697;SDS011;69168;42.708;23.286;2023-09-12T06:38:40;16.57;;;6.77;;
79697;SDS011;69168;42.708;23.286;2023-09-12T06:41:05;11.60;;;4.72;;
79697;SDS011;69168;42.708;23.286;2023-09-12T06:43:31;15.05;;;6.30;;
79697;SDS011;69168;42.708;23.286;2023-09-12T06:45:56;13.15;;;5.53;;
79697;SDS011;69168;42.708;23.286;2023-09-12T06:48:22;13.68;;;6.05;;
79697;SDS011;69168;42.708;23.286;2023-09-12T06:50:47;12.02;;;4.70;;
79697;SDS011;69168;42.708;23.286;2023-09-12T06:53:13;11.68;;;6.95;;
79697;SDS011;69168;42.708;23.286;2023-09-12T06:55:38;12.30;;;4.90;;
79697;SDS011;69168;42.708;23.286;2023-09-12T06:58:04;13.52;;;8.40;;
79697;SDS011;69168;42.708;23.286;2023-09-12T07:00:30;13.32;;;5.25;;
79697;SDS011;69168;42.708;23.286;2023-09-12T07:02:56;13.63;;;5.20;;
79697;SDS011;69168;42.708;23.286;2023-09-12T07:05:21;8.82;;;5.05;;
79697;SDS011;69168;42.708;23.286;2023-09-12T07:07:47;9.07;;;5.50;;
79697;SDS011;69168;42.708;23.286;2023-09-12T07:10:12;10.60;;;4.72;;
79697;SDS011;69168;42.708;23.286;2023-09-12T07:12:38;8.65;;;4.70;;
79697;SDS011;69168;42.708;23.286;2023-09-12T07:15:03;11.07;;;4.18;;
79697;SDS011;69168;42.708;23.286;2023-09-12T07:17:29;11.63;;;4.43;;
79697;SDS011;69168;42.708;23.286;2023-09-12T07:19:54;6.15;;;4.40;;
79697;SDS011;69168;42.708;23.286;2023-09-12T07:22:20;7.30;;;4.45;;
79697;SDS011;69168;42.708;23.286;2023-09-12T07:24:45;10.93;;;4.70;;
79697;SDS011;69168;42.708;23.286;2023-09-12T07:27:10;7.80;;;4.18;;
79697;SDS011;69168;42.708;23.286;2023-09-12T07:29:36;10.30;;;4.47;;
79697;SDS011;69168;42.708;23.286;2023-09-12T07:34:28;8.87;;;3.87;;
79697;SDS011;69168;42.708;23.286;2023-09-12T07:36:53;8.38;;;4.50;;
79697;SDS011;69168;42.708;23.286;2023-09-12T07:39:19;8.57;;;5.22;;
79697;SDS011;69168;42.708;23.286;2023-09-12T07:41:44;10.00;;;4.82;;
79697;SDS011;69168;42.708;23.286;2023-09-12T07:44:10;15.07;;;4.60;;
79697;SDS011;69168;42.708;23.286;2023-09-12T07:46:40;9.57;;;4.38;;
79697;SDS011;69168;42.708;23.286;2023-09-12T07:49:06;7.93;;;4.72;;
79697;SDS011;69168;42.708;23.286;2023-09-12T07:51:34;9.85;;;5.28;;
79697;SDS011;69168;42.708;23.286;2023-09-12T07:54:00;6.97;;;4.15;;
79697;SDS011;69168;42.708;23.286;2023-09-12T07:56:25;8.77;;;4.78;;
79697;SDS011;69168;42.708;23.286;2023-09-12T07:58:51;10.45;;;4.88;;
79697;SDS011;69168;42.708;23.286;2023-09-12T08:01:17;12.63;;;4.75;;
79697;SDS011;69168;42.708;23.286;2023-09-12T08:03:42;8.85;;;4.22;;
79697;SDS011;69168;42.708;23.286;2023-09-12T08:06:08;10.65;;;3.67;;
79697;SDS011;69168;42.708;23.286;2023-09-12T08:08:34;7.90;;;3.92;;
79697;SDS011;69168;42.708;23.286;2023-09-12T08:11:00;8.63;;;3.72;;
79697;SDS011;69168;42.708;23.286;2023-09-12T08:13:26;10.07;;;3.45;;
79697;SDS011;69168;42.708;23.286;2023-09-12T08:15:55;9.45;;;3.35;;
79697;SDS011;69168;42.708;23.286;2023-09-12T08:18:21;4.07;;;2.80;;
79697;SDS011;69168;42.708;23.286;2023-09-12T08:20:47;7.25;;;3.47;;
79697;SDS011;69168;42.708;23.286;2023-09-12T08:23:12;8.80;;;2.90;;
79697;SDS011;69168;42.708;23.286;2023-09-12T08:25:39;5.65;;;3.05;;
79697;SDS011;69168;42.708;23.286;2023-09-12T08:28:05;8.75;;;4.28;;
79697;SDS011;69168;42.708;23.286;2023-09-12T08:30:33;7.00;;;3.28;;
79697;SDS011;69168;42.708;23.286;2023-09-12T08:32:58;7.10;;;3.40;;
79697;SDS011;69168;42.708;23.286;2023-09-12T08:35:24;5.85;;;2.78;;
79697;SDS011;69168;42.708;23.286;2023-09-12T08:37:51;7.05;;;3.42;;
79697;SDS011;69168;42.708;23.286;2023-09-12T08:40:17;6.00;;;2.65;;
79697;SDS011;69168;42.708;23.286;2023-09-12T08:42:43;7.75;;;2.88;;
79697;SDS011;69168;42.708;23.286;2023-09-12T08:47:43;6.10;;;2.55;;
79697;SDS011;69168;42.708;23.286;2023-09-12T08:50:10;8.95;;;2.58;;
79697;SDS011;69168;42.708;23.286;2023-09-12T08:52:41;6.93;;;2.78;;
79697;SDS011;69168;42.708;23.286;2023-09-12T08:55:08;7.03;;;2.78;;
79697;SDS011;69168;42.708;23.286;2023-09-12T08:57:35;4.70;;;2.55;;
79697;SDS011;69168;42.708;23.286;2023-09-12T09:00:03;16.02;;;3.80;;
79697;SDS011;69168;42.708;23.286;2023-09-12T09:02:39;8.43;;;2.95;;
79697;SDS011;69168;42.708;23.286;2023-09-12T09:05:06;6.22;;;2.53;;
79697;SDS011;69168;42.708;23.286;2023-09-12T09:07:40;6.53;;;3.00;;
79697;SDS011;69168;42.708;23.286;2023-09-12T09:10:08;6.10;;;2.60;;
79697;SDS011;69168;42.708;23.286;2023-09-12T09:12:39;5.32;;;2.20;;
79697;SDS011;69168;42.708;23.286;2023-09-12T09:15:24;7.78;;;2.80;;
79697;SDS011;69168;42.708;23.286;2023-09-12T09:17:54;4.15;;;2.45;;
79697;SDS011;69168;42.708;23.286;2023-09-12T09:20:21;5.20;;;2.63;;
79697;SDS011;69168;42.708;23.286;2023-09-12T09:23:07;7.45;;;2.90;;
79697;SDS011;69168;42.708;23.286;2023-09-12T09:25:40;10.38;;;2.75;;
79697;SDS011;69168;42.708;23.286;2023-09-12T09:28:17;7.05;;;3.50;;
79697;SDS011;69168;42.708;23.286;2023-09-12T09:30:48;4.70;;;2.78;;
79697;SDS011;69168;42.708;23.286;2023-09-12T09:33:16;7.93;;;3.05;;
79697;SDS011;69168;42.708;23.286;2023-09-12T09:35:41;6.30;;;2.78;;
79697;SDS011;69168;42.708;23.286;2023-09-12T09:38:08;10.57;;;3.03;;
79697;SDS011;69168;42.708;23.286;2023-09-12T09:40:34;6.90;;;2.50;;
79697;SDS011;69168;42.708;23.286;2023-09-12T09:43:01;8.05;;;2.45;;
79697;SDS011;69168;42.708;23.286;2023-09-12T09:45:28;6.15;;;2.25;;
79697;SDS011;69168;42.708;23.286;2023-09-12T09:48:04;6.45;;;2.92;;
79697;SDS011;69168;42.708;23.286;2023-09-12T09:50:33;6.95;;;2.70;;
79697;SDS011;69168;42.708;23.286;2023-09-12T09:53:02;4.45;;;2.47;;
79697;SDS011;69168;42.708;23.286;2023-09-12T09:55:29;7.60;;;2.88;;
79697;SDS011;69168;42.708;23.286;2023-09-12T09:57:55;5.38;;;2.83;;
79697;SDS011;69168;42.708;23.286;2023-09-12T10:00:21;6.40;;;2.95;;
79697;SDS011;69168;42.708;23.286;2023-09-12T10:02:48;5.85;;;2.58;;
79697;SDS011;69168;42.708;23.286;2023-09-12T10:05:16;9.70;;;3.10;;
79697;SDS011;69168;42.708;23.286;2023-09-12T10:07:42;7.28;;;3.30;;
79697;SDS011;69168;42.708;23.286;2023-09-12T10:10:12;4.65;;;2.65;;
79697;SDS011;69168;42.708;23.286;2023-09-12T10:12:41;6.43;;;2.83;;
79697;SDS011;69168;42.708;23.286;2023-09-12T10:15:13;7.38;;;2.50;;
79697;SDS011;69168;42.708;23.286;2023-09-12T10:17:40;5.80;;;2.92;;
79697;SDS011;69168;42.708;23.286;2023-09-12T10:20:12;7.15;;;2.88;;
79697;SDS011;69168;42.708;23.286;2023-09-12T10:22:43;8.02;;;3.13;;
79697;SDS011;69168;42.708;23.286;2023-09-12T10:25:17;7.03;;;3.03;;
79697;SDS011;69168;42.708;23.286;2023-09-12T10:27:42;6.55;;;2.53;;
79697;SDS011;69168;42.708;23.286;2023-09-12T10:30:07;6.07;;;2.35;;
79697;SDS011;69168;42.708;23.286;2023-09-12T10:32:34;7.38;;;3.13;;
79697;SDS011;69168;42.708;23.286;2023-09-12T10:35:00;13.50;;;3.10;;
79697;SDS011;69168;42.708;23.286;2023-09-12T10:37:28;6.72;;;3.10;;
79697;SDS011;69168;42.708;23.286;2023-09-12T10:39:54;5.63;;;3.08;;
79697;SDS011;69168;42.708;23.286;2023-09-12T10:42:22;5.88;;;3.13;;
79697;SDS011;69168;42.708;23.286;2023-09-12T10:44:50;8.82;;;3.08;;
79697;SDS011;69168;42.708;23.286;2023-09-12T10:47:16;7.57;;;3.78;;
79697;SDS011;69168;42.708;23.286;2023-09-12T10:49:43;6.80;;;3.22;;
79697;SDS011;69168;42.708;23.286;2023-09-12T10:52:09;7.15;;;2.72;;
79697;SDS011;69168;42.708;23.286;2023-09-12T10:57:04;5.05;;;3.05;;
79697;SDS011;69168;42.708;23.286;2023-09-12T11:00:08;6.88;;;2.85;;
79697;SDS011;69168;42.708;23.286;2023-09-12T11:02:30;7.38;;;2.97;;
79697;SDS011;69168;42.708;23.286;2023-09-12T11:05:00;5.85;;;2.97;;
79697;SDS011;69168;42.708;23.286;2023-09-12T11:07:32;6.38;;;3.08;;
79697;SDS011;69168;42.708;23.286;2023-09-12T11:15:05;3.25;;;2.20;;
79697;SDS011;69168;42.708;23.286;2023-09-12T11:17:37;5.97;;;3.25;;
79697;SDS011;69168;42.708;23.286;2023-09-12T11:20:02;7.85;;;2.95;;
79697;SDS011;69168;42.708;23.286;2023-09-12T11:22:35;5.22;;;3.30;;
79697;SDS011;69168;42.708;23.286;2023-09-12T11:25:02;9.30;;;3.90;;
79697;SDS011;69168;42.708;23.286;2023-09-12T11:27:32;12.18;;;6.22;;
79697;SDS011;69168;42.708;23.286;2023-09-12T11:30:09;4.38;;;3.20;;
79697;SDS011;69168;42.708;23.286;2023-09-12T11:32:35;9.35;;;3.42;;
79697;SDS011;69168;42.708;23.286;2023-09-12T11:35:05;5.57;;;2.80;;
79697;SDS011;69168;42.708;23.286;2023-09-12T11:37:32;4.55;;;2.75;;
79697;SDS011;69168;42.708;23.286;2023-09-12T11:39:58;6.70;;;2.63;;
79697;SDS011;69168;42.708;23.286;2023-09-12T11:42:24;6.90;;;2.92;;
79697;SDS011;69168;42.708;23.286;2023-09-12T11:44:53;4.32;;;3.30;;
79697;SDS011;69168;42.708;23.286;2023-09-12T11:49:45;6.47;;;3.20;;
79697;SDS011;69168;42.708;23.286;2023-09-12T11:52:13;5.20;;;2.67;;
79697;SDS011;69168;42.708;23.286;2023-09-12T11:54:41;8.13;;;2.60;;
79697;SDS011;69168;42.708;23.286;2023-09-12T11:57:08;7.68;;;2.97;;
79697;SDS011;69168;42.708;23.286;2023-09-12T11:59:38;6.18;;;2.75;;
79697;SDS011;69168;42.708;23.286;2023-09-12T12:02:07;5.03;;;2.67;;
79697;SDS011;69168;42.708;23.286;2023-09-12T12:04:33;9.25;;;2.70;;
79697;SDS011;69168;42.708;23.286;2023-09-12T12:07:00;8.32;;;3.25;;
79697;SDS011;69168;42.708;23.286;2023-09-12T12:09:26;4.70;;;2.90;;
79697;SDS011;69168;42.708;23.286;2023-09-12T12:11:52;8.40;;;2.63;;
79697;SDS011;69168;42.708;23.286;2023-09-12T12:14:17;11.18;;;5.05;;
79697;SDS011;69168;42.708;23.286;2023-09-12T12:16:44;8.80;;;3.70;;
79697;SDS011;69168;42.708;23.286;2023-09-12T12:19:11;6.72;;;2.80;;
79697;SDS011;69168;42.708;23.286;2023-09-12T12:21:38;9.55;;;3.20;;
79697;SDS011;69168;42.708;23.286;2023-09-12T12:24:05;8.88;;;2.60;;
79697;SDS011;69168;42.708;23.286;2023-09-12T12:26:32;6.00;;;2.72;;
79697;SDS011;69168;42.708;23.286;2023-09-12T12:31:25;7.18;;;2.90;;
79697;SDS011;69168;42.708;23.286;2023-09-12T12:33:55;10.98;;;3.17;;
79697;SDS011;69168;42.708;23.286;2023-09-12T12:36:21;9.43;;;3.72;;
79697;SDS011;69168;42.708;23.286;2023-09-12T12:41:17;6.03;;;2.97;;
79697;SDS011;69168;42.708;23.286;2023-09-12T12:43:49;7.65;;;4.13;;
79697;SDS011;69168;42.708;23.286;2023-09-12T12:46:18;4.55;;;3.05;;
79697;SDS011;69168;42.708;23.286;2023-09-12T12:48:47;7.95;;;4.30;;
79697;SDS011;69168;42.708;23.286;2023-09-12T12:51:33;5.88;;;3.63;;
79697;SDS011;69168;42.708;23.286;2023-09-12T12:54:07;8.85;;;3.70;;
79697;SDS011;69168;42.708;23.286;2023-09-12T12:56:35;7.32;;;3.40;;
79697;SDS011;69168;42.708;23.286;2023-09-12T12:59:01;6.30;;;3.75;;
79697;SDS011;69168;42.708;23.286;2023-09-12T13:01:29;6.15;;;3.72;;
79697;SDS011;69168;42.708;23.286;2023-09-12T13:03:55;4.25;;;2.92;;
79697;SDS011;69168;42.708;23.286;2023-09-12T13:06:21;6.95;;;3.38;;
79697;SDS011;69168;42.708;23.286;2023-09-12T13:08:49;5.82;;;3.03;;
79697;SDS011;69168;42.708;23.286;2023-09-12T13:11:15;6.60;;;3.03;;
79697;SDS011;69168;42.708;23.286;2023-09-12T13:13:41;6.22;;;3.45;;
79697;SDS011;69168;42.708;23.286;2023-09-12T13:16:08;7.30;;;3.10;;
79697;SDS011;69168;42.708;23.286;2023-09-12T13:18:35;5.63;;;3.22;;
79697;SDS011;69168;42.708;23.286;2023-09-12T13:21:01;7.13;;;2.97;;
79697;SDS011;69168;42.708;23.286;2023-09-12T13:23:27;6.10;;;2.83;;
79697;SDS011;69168;42.708;23.286;2023-09-12T13:25:54;5.22;;;2.80;;
79697;SDS011;69168;42.708;23.286;2023-09-12T13:28:19;5.88;;;2.80;;
79697;SDS011;69168;42.708;23.286;2023-09-12T13:30:45;5.63;;;3.15;;
79697;SDS011;69168;42.708;23.286;2023-09-12T13:33:11;8.45;;;3.22;;
79697;SDS011;69168;42.708;23.286;2023-09-12T13:35:40;7.18;;;3.25;;
79697;SDS011;69168;42.708;23.286;2023-09-12T13:38:06;4.53;;;2.80;;
79697;SDS011;69168;42.708;23.286;2023-09-12T13:40:38;7.10;;;2.90;;
79697;SDS011;69168;42.708;23.286;2023-09-12T13:43:07;9.15;;;3.08;;
79697;SDS011;69168;42.708;23.286;2023-09-12T13:45:33;9.75;;;2.75;;
79697;SDS011;69168;42.708;23.286;2023-09-12T13:48:00;8.05;;;2.70;;
79697;SDS011;69168;42.708;23.286;2023-09-12T13:50:28;5.85;;;2.78;;
79697;SDS011;69168;42.708;23.286;2023-09-12T13:52:54;6.05;;;3.17;;
79697;SDS011;69168;42.708;23.286;2023-09-12T13:55:20;5.63;;;3.10;;
79697;SDS011;69168;42.708;23.286;2023-09-12T13:57:46;6.00;;;3.00;;
79697;SDS011;69168;42.708;23.286;2023-09-12T14:00:12;7.03;;;2.67;;
79697;SDS011;69168;42.708;23.286;2023-09-12T14:02:38;5.60;;;3.10;;
79697;SDS011;69168;42.708;23.286;2023-09-12T14:05:03;4.60;;;2.97;;
79697;SDS011;69168;42.708;23.286;2023-09-12T14:07:29;6.45;;;3.40;;
79697;SDS011;69168;42.708;23.286;2023-09-12T14:09:54;5.55;;;3.08;;
79697;SDS011;69168;42.708;23.286;2023-09-12T14:12:24;6.53;;;3.00;;
79697;SDS011;69168;42.708;23.286;2023-09-12T14:14:51;6.30;;;2.97;;
79697;SDS011;69168;42.708;23.286;2023-09-12T14:17:16;4.90;;;2.58;;
79697;SDS011;69168;42.708;23.286;2023-09-12T14:19:42;7.10;;;2.90;;
79697;SDS011;69168;42.708;23.286;2023-09-12T14:22:08;4.90;;;2.88;;
79697;SDS011;69168;42.708;23.286;2023-09-12T14:24:33;8.93;;;3.38;;
79697;SDS011;69168;42.708;23.286;2023-09-12T14:26:59;6.90;;;3.53;;
79697;SDS011;69168;42.708;23.286;2023-09-12T14:29:25;5.40;;;2.92;;
79697;SDS011;69168;42.708;23.286;2023-09-12T14:31:53;6.72;;;2.97;;
79697;SDS011;69168;42.708;23.286;2023-09-12T14:34:25;9.05;;;3.35;;
79697;SDS011;69168;42.708;23.286;2023-09-12T14:36:56;8.93;;;3.00;;
79697;SDS011;69168;42.708;23.286;2023-09-12T14:39:22;3.78;;;3.08;;
79697;SDS011;69168;42.708;23.286;2023-09-12T14:41:49;4.53;;;2.80;;
79697;SDS011;69168;42.708;23.286;2023-09-12T14:44:17;7.43;;;2.83;;
79697;SDS011;69168;42.708;23.286;2023-09-12T14:46:43;5.90;;;2.95;;
79697;SDS011;69168;42.708;23.286;2023-09-12T14:49:09;6.45;;;2.50;;
79697;SDS011;69168;42.708;23.286;2023-09-12T14:51:35;7.50;;;3.25;;
79697;SDS011;69168;42.708;23.286;2023-09-12T14:54:04;4.40;;;2.70;;
79697;SDS011;69168;42.708;23.286;2023-09-12T14:56:30;2.88;;;2.50;;
79697;SDS011;69168;42.708;23.286;2023-09-12T14:58:56;7.65;;;2.95;;
79697;SDS011;69168;42.708;23.286;2023-09-12T15:01:22;6.35;;;3.10;;